createdAt,value
2022-08-14T00:01:11.668Z,1.70
2022-08-14T00:03:45.533Z,2.08
2022-08-14T00:06:25.940Z,2.10
2022-08-14T00:09:02.579Z,2.17
2022-08-14T00:11:35.545Z,2.28
2022-08-14T00:14:09.562Z,1.88
2022-08-14T00:16:50.678Z,2.00
2022-08-14T00:19:22.624Z,2.15
2022-08-14T00:21:50.693Z,2.13
2022-08-14T00:24:28.881Z,1.80
2022-08-14T00:27:04.590Z,1.90
2022-08-14T00:29:33.139Z,1.98
2022-08-14T00:32:56.470Z,2.00
2022-08-14T00:35:08.582Z,1.95
2022-08-14T00:37:40.353Z,1.70
2022-08-14T00:40:27.341Z,1.90
2022-08-14T00:43:01.088Z,2.13
2022-08-14T00:45:35.577Z,1.80
2022-08-14T00:48:02.745Z,2.17
2022-08-14T00:50:29.895Z,1.67
2022-08-14T00:53:03.593Z,1.80
2022-08-14T00:55:30.468Z,2.08
2022-08-14T00:58:05.582Z,2.00
2022-08-14T01:00:47.353Z,2.17
2022-08-14T01:03:19.277Z,2.28
2022-08-14T01:05:53.585Z,2.30
2022-08-14T01:08:51.747Z,2.20
2022-08-14T01:11:19.467Z,2.20
2022-08-14T01:13:50.665Z,1.88
2022-08-14T01:16:30.979Z,1.90
2022-08-14T01:19:05.612Z,1.80
2022-08-14T01:21:46.836Z,1.98
2022-08-14T01:24:14.327Z,1.88
2022-08-14T01:26:56.615Z,2.15
2022-08-14T01:29:58.247Z,1.83
2022-08-14T01:32:16.653Z,2.08
2022-08-14T01:35:20.189Z,1.73
2022-08-14T01:37:46.837Z,2.20
2022-08-14T01:40:36.307Z,1.83
2022-08-14T01:43:26.422Z,1.58
2022-08-14T01:45:57.680Z,1.98
2022-08-14T01:48:39.638Z,2.00
2022-08-14T01:51:18.980Z,2.00
2022-08-14T01:53:55.330Z,1.77
2022-08-14T01:56:30.431Z,1.95
2022-08-14T01:59:03.617Z,1.98
2022-08-14T02:01:30.417Z,1.90
2022-08-14T02:04:05.655Z,2.05
2022-08-14T02:06:54.173Z,2.00
2022-08-14T02:09:27.649Z,1.98
2022-08-14T02:12:00.647Z,1.70
2022-08-14T02:14:31.528Z,1.83
2022-08-14T02:16:59.124Z,2.00
2022-08-14T02:19:34.628Z,1.85
2022-08-14T02:22:03.138Z,1.50
2022-08-14T02:24:40.405Z,2.00
2022-08-14T02:28:22.590Z,2.00
2022-08-14T02:30:02.684Z,1.98
2022-08-14T02:32:39.641Z,1.83
2022-08-14T02:35:08.694Z,1.80
2022-08-14T02:37:48.469Z,1.88
2022-08-14T02:40:17.111Z,2.03
2022-08-14T02:42:55.167Z,2.00
2022-08-14T02:45:33.533Z,1.85
2022-08-14T02:49:02.507Z,1.80
2022-08-14T02:51:00.973Z,1.80
2022-08-14T02:53:37.451Z,2.00
2022-08-14T02:57:14.400Z,2.10
2022-08-14T02:59:06.666Z,1.90
2022-08-14T03:01:43.689Z,2.10
2022-08-14T03:04:20.566Z,2.30
2022-08-14T03:06:58.031Z,2.15
2022-08-14T03:09:42.280Z,2.15
2022-08-14T03:12:31.846Z,2.20
2022-08-14T03:15:02.922Z,2.50
2022-08-14T03:17:40.785Z,2.17
2022-08-14T03:20:29.666Z,2.25
2022-08-14T03:22:57.043Z,2.08
2022-08-14T03:25:30.731Z,2.38
2022-08-14T03:27:58.294Z,2.20
2022-08-14T03:30:39.444Z,2.03
2022-08-14T03:33:16.695Z,2.20
2022-08-14T03:36:00.085Z,2.08
2022-08-14T03:39:15.590Z,2.85
2022-08-14T03:41:33.202Z,2.08
2022-08-14T03:45:25.143Z,2.40
2022-08-14T03:46:56.694Z,2.30
2022-08-14T03:49:28.333Z,2.05
2022-08-14T03:52:03.701Z,2.33
2022-08-14T03:54:30.850Z,2.20
2022-08-14T03:57:04.710Z,2.17
2022-08-14T03:59:34.133Z,2.08
2022-08-14T04:02:02.561Z,2.08
2022-08-14T04:04:38.700Z,2.15
2022-08-14T04:07:06.213Z,2.03
2022-08-14T04:09:33.306Z,2.30
2022-08-14T04:12:08.327Z,1.98
2022-08-14T04:14:46.739Z,1.92
2022-08-14T04:17:20.723Z,1.95
2022-08-14T04:19:49.125Z,1.85
2022-08-14T04:22:22.725Z,1.63
2022-08-14T04:24:49.618Z,2.00
2022-08-14T04:27:24.766Z,2.00
2022-08-14T04:29:51.704Z,2.00
2022-08-14T04:33:02.651Z,2.03
2022-08-14T04:35:11.713Z,1.90
2022-08-14T04:37:45.276Z,1.85
2022-08-14T04:40:18.759Z,2.03
2022-08-14T04:42:47.443Z,1.90
2022-08-14T04:45:29.691Z,1.90
2022-08-14T04:47:57.193Z,1.73
2022-08-14T04:50:33.821Z,1.98
2022-08-14T04:53:18.970Z,1.85
2022-08-14T04:55:51.609Z,2.00
2022-08-14T04:58:32.681Z,1.90
2022-08-14T05:01:01.603Z,1.90
2022-08-14T05:03:37.688Z,2.22
2022-08-14T05:06:06.463Z,2.10
2022-08-14T05:09:00.935Z,1.95
2022-08-14T05:11:27.943Z,1.83
2022-08-14T05:14:17.326Z,2.10
2022-08-14T05:16:48.526Z,2.40
2022-08-14T05:19:26.741Z,2.20
2022-08-14T05:22:01.019Z,2.00
2022-08-14T05:24:48.417Z,2.00
2022-08-14T05:27:16.739Z,2.22
2022-08-14T05:29:49.777Z,2.00
2022-08-14T05:32:16.546Z,2.05
2022-08-14T05:34:45.657Z,2.20
2022-08-14T05:37:19.778Z,2.00
2022-08-14T05:39:46.671Z,2.20
2022-08-14T05:42:22.176Z,2.00
2022-08-14T05:45:00.770Z,2.50
2022-08-14T05:47:28.647Z,2.00
2022-08-14T05:50:03.799Z,2.10
2022-08-14T05:52:39.214Z,2.30
2022-08-14T05:55:16.984Z,2.22
2022-08-14T05:57:54.734Z,2.17
2022-08-14T06:00:44.769Z,2.20
2022-08-14T06:03:13.135Z,2.20
2022-08-14T06:05:39.919Z,2.40
2022-08-14T06:08:41.271Z,2.15
2022-08-14T06:11:20.281Z,2.22
2022-08-14T06:13:50.665Z,2.20
2022-08-14T06:16:25.770Z,2.55
2022-08-14T06:18:59.510Z,2.20
2022-08-14T06:21:26.417Z,2.50
2022-08-14T06:23:59.814Z,2.55
2022-08-14T06:26:30.289Z,2.38
2022-08-14T06:29:03.829Z,2.60
2022-08-14T06:31:32.246Z,2.30
2022-08-14T06:35:03.836Z,2.35
2022-08-14T06:36:52.804Z,1.90
2022-08-14T06:39:36.304Z,1.90
2022-08-14T06:42:05.857Z,2.30
2022-08-14T06:44:38.848Z,2.08
2022-08-14T06:47:11.803Z,2.50
2022-08-14T06:49:40.491Z,2.25
2022-08-14T06:52:18.817Z,2.20
2022-08-14T06:54:46.358Z,2.05
2022-08-14T06:57:21.616Z,1.98
2022-08-14T06:59:54.830Z,1.98
2022-08-14T07:02:29.294Z,2.60
2022-08-14T07:04:56.319Z,2.30
2022-08-14T07:07:29.848Z,2.17
2022-08-14T07:10:06.860Z,2.20
2022-08-14T07:12:54.113Z,2.00
2022-08-14T07:15:26.829Z,1.92
2022-08-14T07:17:55.962Z,2.28
2022-08-14T07:20:32.011Z,2.00
2022-08-14T07:23:07.308Z,2.25
2022-08-14T07:25:43.836Z,1.80
2022-08-14T07:28:20.428Z,1.92
2022-08-14T07:30:54.879Z,1.83
2022-08-14T07:33:29.171Z,1.90
2022-08-14T07:36:26.253Z,1.90
2022-08-14T07:38:57.839Z,1.85
2022-08-14T07:41:24.633Z,1.95
2022-08-14T07:44:32.009Z,2.08
2022-08-14T07:46:51.639Z,2.10
2022-08-14T07:49:24.869Z,2.10
2022-08-14T07:51:51.689Z,1.90
2022-08-14T07:54:23.697Z,2.30
2022-08-14T07:57:12.235Z,1.90
2022-08-14T07:59:47.157Z,2.45
2022-08-14T08:02:23.913Z,1.80
2022-08-14T08:04:53.212Z,2.10
2022-08-14T08:07:30.179Z,2.05
2022-08-14T08:09:58.100Z,2.10
2022-08-14T08:12:30.197Z,2.28
2022-08-14T08:15:07.043Z,2.00
2022-08-14T08:17:39.063Z,1.90
2022-08-14T08:20:22.909Z,1.90
2022-08-14T08:22:55.884Z,2.00
2022-08-14T08:25:33.896Z,1.90
2022-08-14T08:28:21.836Z,1.92
2022-08-14T08:30:57.465Z,1.90
2022-08-14T08:33:38.897Z,2.88
2022-08-14T08:36:08.374Z,1.90
2022-08-14T08:39:16.744Z,2.10
2022-08-14T08:41:53.888Z,2.75
2022-08-14T08:44:32.508Z,2.22
2022-08-14T08:47:13.889Z,2.13
2022-08-14T08:49:42.783Z,2.85
2022-08-14T08:52:15.394Z,2.25
2022-08-14T08:55:04.565Z,2.13
2022-08-14T08:57:35.913Z,2.83
2022-08-14T09:00:25.373Z,2.13
2022-08-14T09:03:04.074Z,2.65
2022-08-14T09:05:31.519Z,2.58
2022-08-14T09:08:38.963Z,2.38
2022-08-14T09:11:18.943Z,2.22
2022-08-14T09:14:00.974Z,2.20
2022-08-14T09:16:33.937Z,2.20
2022-08-14T09:19:08.979Z,2.38
2022-08-14T09:21:43.014Z,2.28
2022-08-14T09:24:28.746Z,2.53
2022-08-14T09:27:03.944Z,2.53
2022-08-14T09:29:33.606Z,2.47
2022-08-14T09:32:10.102Z,2.40
2022-08-14T09:35:41.934Z,2.20
2022-08-14T09:38:26.017Z,2.00
2022-08-14T09:41:25.034Z,2.60
2022-08-14T09:44:50.279Z,2.22
2022-08-14T09:47:23.958Z,2.60
2022-08-14T09:49:58.953Z,2.60
2022-08-14T09:52:34.144Z,2.53
2022-08-14T09:55:08.006Z,1.83
2022-08-14T09:57:35.609Z,3.03
2022-08-14T10:00:30.478Z,2.45
2022-08-14T10:02:58.418Z,2.72
2022-08-14T10:05:39.441Z,2.50
2022-08-14T10:08:17.430Z,2.10
2022-08-14T10:11:02.774Z,2.58
2022-08-14T10:13:43.192Z,2.45
2022-08-14T10:16:27.256Z,2.10
2022-08-14T10:19:05.841Z,2.30
2022-08-14T10:21:58.414Z,2.58
2022-08-14T10:24:38.974Z,2.10
2022-08-14T10:27:38.346Z,2.10
2022-08-14T10:30:22.613Z,2.15
2022-08-14T10:32:59.008Z,2.20
2022-08-14T10:35:31.133Z,2.05
2022-08-14T10:38:07.411Z,2.20
2022-08-14T10:40:51.997Z,2.10
2022-08-14T10:43:26.290Z,2.10
2022-08-14T10:47:36.856Z,2.33
2022-08-14T10:48:59.469Z,1.75
2022-08-14T10:51:35.335Z,1.90
2022-08-14T10:54:16.347Z,2.13
2022-08-14T10:56:49.979Z,2.30
2022-08-14T10:59:30.493Z,1.98
2022-08-14T11:02:02.281Z,2.10
2022-08-14T11:04:36.011Z,2.40
2022-08-14T11:07:05.882Z,2.30
2022-08-14T11:09:33.300Z,2.30
2022-08-14T11:12:33.770Z,2.25
2022-08-14T11:15:02.180Z,2.42
2022-08-14T11:17:32.854Z,2.33
2022-08-14T11:20:00.856Z,2.35
2022-08-14T11:23:03.219Z,2.33
2022-08-14T11:25:43.217Z,2.47
2022-08-14T11:28:20.000Z,2.40
2022-08-14T11:31:08.922Z,1.98
2022-08-14T11:33:42.052Z,2.03
2022-08-14T11:36:17.287Z,2.28
2022-08-14T11:38:52.068Z,2.25
2022-08-14T11:41:27.040Z,2.38
2022-08-14T11:43:55.953Z,2.25
2022-08-14T11:46:37.483Z,2.10
2022-08-14T11:49:11.835Z,2.00
2022-08-14T11:51:53.519Z,2.45
2022-08-14T11:54:34.523Z,2.00
2022-08-14T11:57:02.221Z,2.20
2022-08-14T11:59:43.937Z,2.25
2022-08-14T12:02:38.975Z,1.90
2022-08-14T12:05:09.777Z,2.22
2022-08-14T12:07:36.806Z,1.88
2022-08-14T12:10:26.528Z,1.80
2022-08-14T12:13:12.858Z,1.92
2022-08-14T12:15:46.039Z,1.88
2022-08-14T12:18:19.653Z,1.40
2022-08-14T12:20:54.527Z,1.30
2022-08-14T12:23:27.722Z,1.55
2022-08-14T12:26:39.883Z,1.63
2022-08-14T12:29:13.097Z,1.35
2022-08-14T12:31:47.400Z,1.20
2022-08-14T12:34:20.705Z,1.30
2022-08-14T12:36:56.088Z,1.35
2022-08-14T12:39:39.845Z,1.50
2022-08-14T12:42:07.372Z,1.80
2022-08-14T12:44:42.083Z,1.60
2022-08-14T12:47:15.126Z,1.98
2022-08-14T12:49:57.748Z,1.45
2022-08-14T12:52:45.173Z,1.83
2022-08-14T12:55:32.615Z,1.80
2022-08-14T12:58:29.222Z,1.38
2022-08-14T13:01:16.780Z,1.48
2022-08-14T13:03:52.098Z,1.70
2022-08-14T13:06:19.346Z,1.73
2022-08-14T13:08:53.030Z,1.55
2022-08-14T13:11:26.132Z,1.25
2022-08-14T13:13:56.184Z,1.23
2022-08-14T13:16:37.829Z,1.45
2022-08-14T13:19:12.094Z,1.40
2022-08-14T13:21:58.521Z,1.60
2022-08-14T13:24:39.485Z,1.88
2022-08-14T13:27:06.606Z,1.70
2022-08-14T13:29:46.800Z,1.55
2022-08-14T13:32:14.532Z,1.50
2022-08-14T13:34:48.162Z,1.23
2022-08-14T13:37:16.911Z,1.92
2022-08-14T13:39:58.144Z,1.38
2022-08-14T13:42:26.091Z,1.50
2022-08-14T13:44:53.452Z,1.20
2022-08-14T13:47:30.338Z,1.40
2022-08-14T13:49:58.884Z,1.60
2022-08-14T13:52:51.898Z,1.30
2022-08-14T13:55:19.136Z,1.60
2022-08-14T13:58:04.034Z,1.40
2022-08-14T14:00:53.263Z,1.30
2022-08-14T14:03:30.175Z,1.30
2022-08-14T14:05:58.621Z,1.42
2022-08-14T14:08:46.748Z,1.50
2022-08-14T14:11:20.147Z,1.20
2022-08-14T14:13:47.730Z,1.30
2022-08-14T14:16:26.380Z,1.83
2022-08-14T14:18:57.560Z,1.60
2022-08-14T14:21:32.738Z,1.00
2022-08-14T14:23:59.713Z,1.35
2022-08-14T14:26:28.567Z,1.52
2022-08-14T14:29:02.142Z,2.15
2022-08-14T14:31:31.182Z,1.67
2022-08-14T14:34:20.095Z,1.90
2022-08-14T14:36:56.696Z,1.48
2022-08-14T14:39:31.255Z,1.33
2022-08-14T14:42:13.736Z,1.70
2022-08-14T14:44:45.146Z,1.80
2022-08-14T14:47:22.795Z,1.63
2022-08-14T14:49:56.210Z,1.60
2022-08-14T14:52:27.506Z,1.52
2022-08-14T14:55:03.181Z,1.65
2022-08-14T14:57:35.751Z,1.65
2022-08-14T15:00:31.162Z,1.58
2022-08-14T15:02:59.536Z,1.60
2022-08-14T15:05:28.221Z,1.45
2022-08-14T15:08:08.203Z,1.90
2022-08-14T15:10:50.158Z,1.92
2022-08-14T15:13:22.509Z,1.60
2022-08-14T15:15:56.236Z,1.58
2022-08-14T15:18:37.600Z,1.60
2022-08-14T15:21:14.229Z,1.80
2022-08-14T15:23:44.370Z,1.70
2022-08-14T15:26:12.829Z,1.77
2022-08-14T15:29:02.835Z,1.77
2022-08-14T15:31:32.389Z,1.63
2022-08-14T15:34:40.935Z,1.67
2022-08-14T15:36:55.300Z,1.48
2022-08-14T15:39:29.612Z,1.60
2022-08-14T15:42:01.149Z,1.90
2022-08-14T15:44:36.756Z,1.60
2022-08-14T15:47:11.726Z,1.88
2022-08-14T15:49:45.231Z,1.60
2022-08-14T15:52:11.996Z,1.50
2022-08-14T15:54:39.890Z,1.95
2022-08-14T15:57:15.221Z,1.88
2022-08-14T15:59:41.933Z,2.20
2022-08-14T16:02:15.270Z,2.00
2022-08-14T16:04:42.151Z,2.00
2022-08-14T16:07:15.258Z,2.30
2022-08-14T16:09:42.033Z,1.90
2022-08-14T16:12:09.853Z,2.00
2022-08-14T16:14:45.518Z,2.30
2022-08-14T16:17:12.481Z,2.35
2022-08-14T16:19:43.958Z,2.33
2022-08-14T16:25:05.549Z,2.00
2022-08-14T16:27:41.520Z,2.03
2022-08-14T16:30:20.542Z,1.88
2022-08-14T16:33:01.155Z,4.45
2022-08-14T16:35:42.244Z,2.22
2022-08-14T16:38:46.403Z,2.22
2022-08-14T16:40:24.825Z,2.20
2022-08-14T16:41:13.228Z,2.08
2022-08-14T16:43:47.306Z,1.90
2022-08-14T16:46:16.032Z,2.40
2022-08-14T16:48:55.479Z,2.10
2022-08-14T16:51:36.197Z,1.85
2022-08-14T16:54:33.884Z,2.42
2022-08-14T16:57:18.281Z,2.00
2022-08-14T16:59:57.180Z,1.92
2022-08-14T17:02:32.681Z,2.40
2022-08-14T17:05:25.293Z,2.20
2022-08-14T17:08:28.510Z,2.10
2022-08-14T17:10:58.368Z,1.77
2022-08-14T17:13:59.469Z,1.95
2022-08-14T17:16:26.086Z,1.98
2022-08-14T17:18:55.455Z,2.42
2022-08-14T17:21:42.338Z,2.03
2022-08-14T17:24:56.043Z,2.08
2022-08-14T17:27:07.302Z,2.03
2022-08-14T17:29:54.610Z,2.10
2022-08-14T17:32:55.859Z,2.03
2022-08-14T17:35:17.190Z,2.10
2022-08-14T17:37:55.739Z,1.75
2022-08-14T17:40:30.411Z,2.00
2022-08-14T17:43:01.642Z,2.55
2022-08-14T17:45:42.613Z,1.90
2022-08-14T17:49:16.056Z,1.77
2022-08-14T17:51:29.981Z,2.10
2022-08-14T17:54:08.467Z,2.15
2022-08-14T17:56:36.177Z,4.07
2022-08-14T17:59:05.903Z,2.75
2022-08-14T18:01:46.095Z,2.00
2022-08-14T18:04:27.933Z,2.33
2022-08-14T18:07:16.724Z,2.42
2022-08-14T18:09:57.493Z,1.85
2022-08-14T18:12:41.119Z,2.10
2022-08-14T18:15:21.355Z,2.20
2022-08-14T18:18:02.700Z,2.10
2022-08-14T18:21:41.987Z,2.22
2022-08-14T18:23:29.343Z,1.95
2022-08-14T18:25:57.622Z,2.20
2022-08-14T18:28:50.917Z,2.30
2022-08-14T18:31:26.407Z,2.30
2022-08-14T18:34:31.677Z,2.75
2022-08-14T18:37:17.269Z,2.40
2022-08-14T18:40:01.831Z,2.20
2022-08-14T18:42:40.365Z,2.40
2022-08-14T18:45:16.086Z,2.15
2022-08-14T18:48:14.288Z,2.10
2022-08-14T18:50:52.856Z,2.15
2022-08-14T18:53:34.332Z,4.07
2022-08-14T18:56:09.226Z,6.82
2022-08-14T18:58:57.055Z,7.80
2022-08-14T19:01:26.945Z,5.65
2022-08-14T19:03:56.122Z,5.75
2022-08-14T19:06:56.677Z,9.45
2022-08-14T19:10:02.429Z,6.65
2022-08-14T19:13:12.123Z,4.70
2022-08-14T19:15:43.628Z,2.95
2022-08-14T19:18:28.608Z,3.00
2022-08-14T19:21:00.503Z,2.58
2022-08-14T19:23:42.059Z,2.33
2022-08-14T19:26:36.199Z,2.40
2022-08-14T19:29:38.206Z,2.50
2022-08-14T19:32:40.442Z,2.38
2022-08-14T19:35:19.199Z,2.20
2022-08-14T19:37:56.386Z,2.10
2022-08-14T19:40:37.382Z,2.15
2022-08-14T19:43:10.422Z,2.33
2022-08-14T19:45:38.163Z,2.20
2022-08-14T19:48:17.494Z,2.30
2022-08-14T19:50:44.935Z,2.53
2022-08-14T19:53:16.975Z,2.15
2022-08-14T19:56:01.441Z,2.15
2022-08-14T19:58:55.345Z,2.10
2022-08-14T20:01:36.440Z,2.40
2022-08-14T20:04:45.444Z,2.78
2022-08-14T20:07:04.371Z,2.30
2022-08-14T20:11:03.673Z,2.80
2022-08-14T20:12:57.477Z,2.53
2022-08-14T20:15:40.960Z,2.40
2022-08-14T20:18:48.779Z,2.30
2022-08-14T20:21:07.232Z,2.15
2022-08-14T20:23:40.451Z,2.40
2022-08-14T20:26:31.415Z,2.30
2022-08-14T20:29:05.371Z,2.30
2022-08-14T20:31:41.450Z,2.33
2022-08-14T20:34:19.161Z,2.10
2022-08-14T20:37:14.235Z,2.33
2022-08-14T20:39:45.006Z,2.50
2022-08-14T20:42:20.465Z,2.38
2022-08-14T20:44:47.405Z,2.30
2022-08-14T20:47:28.487Z,2.80
2022-08-14T20:50:28.582Z,2.28
2022-08-14T20:52:57.447Z,2.30
2022-08-14T20:55:45.288Z,2.63
2022-08-14T20:58:43.943Z,2.30
2022-08-14T21:01:17.362Z,2.75
2022-08-14T21:03:57.393Z,2.78
2022-08-14T21:07:22.025Z,2.30
2022-08-14T21:10:05.713Z,2.78
2022-08-14T21:12:38.478Z,2.17
2022-08-14T21:15:44.474Z,2.30
2022-08-14T21:18:48.674Z,2.58
2022-08-14T21:21:24.516Z,2.65
2022-08-14T21:24:09.518Z,2.88
2022-08-14T21:27:12.204Z,2.88
2022-08-14T21:29:39.372Z,2.60
2022-08-14T21:32:20.565Z,2.90
2022-08-14T21:34:55.422Z,2.60
2022-08-14T21:37:29.798Z,2.90
2022-08-14T21:39:58.357Z,3.08
2022-08-14T21:42:27.906Z,3.40
2022-08-14T21:45:01.626Z,2.55
2022-08-14T21:47:28.467Z,2.95
2022-08-14T21:50:03.525Z,2.53
2022-08-14T21:53:00.801Z,2.90
2022-08-14T21:55:34.523Z,2.45
2022-08-14T21:58:52.203Z,2.90
2022-08-14T22:00:54.519Z,2.88
2022-08-14T22:03:24.261Z,2.65
2022-08-14T22:05:59.512Z,2.22
2022-08-14T22:08:27.185Z,2.60
2022-08-14T22:10:54.674Z,2.60
2022-08-14T22:13:32.192Z,2.70
2022-08-14T22:15:59.907Z,2.40
2022-08-14T22:18:29.970Z,2.72
2022-08-14T22:21:05.697Z,2.50
2022-08-14T22:23:34.783Z,2.60
2022-08-14T22:26:09.142Z,3.08
2022-08-14T22:28:44.814Z,2.60
2022-08-14T22:31:23.035Z,3.13
2022-08-14T22:33:50.843Z,2.70
2022-08-14T22:36:33.792Z,2.42
2022-08-14T22:39:11.104Z,2.83
2022-08-14T22:41:44.618Z,2.80
2022-08-14T22:44:32.453Z,2.72
2022-08-14T22:47:06.562Z,2.80
2022-08-14T22:50:31.884Z,2.45
2022-08-14T22:52:32.775Z,2.75
2022-08-14T22:55:06.560Z,2.80
2022-08-14T22:57:43.332Z,2.85
2022-08-14T23:00:18.771Z,2.90
2022-08-14T23:02:57.422Z,2.97
2022-08-14T23:05:38.737Z,3.10
2022-08-14T23:08:57.707Z,2.70
2022-08-14T23:11:00.347Z,3.13
2022-08-14T23:13:36.596Z,3.03
2022-08-14T23:16:06.799Z,2.63
2022-08-14T23:18:40.578Z,3.00
2022-08-14T23:21:11.825Z,2.78
2022-08-14T23:23:45.687Z,2.92
2022-08-14T23:26:47.903Z,3.30
2022-08-14T23:29:12.613Z,2.78
2022-08-14T23:31:42.963Z,2.83
2022-08-14T23:34:11.978Z,3.05
2022-08-14T23:36:55.912Z,3.00
2022-08-14T23:39:30.434Z,3.17
2022-08-14T23:42:04.855Z,3.00
2022-08-14T23:44:34.834Z,3.03
2022-08-14T23:47:10.805Z,2.72
2022-08-14T23:50:01.013Z,3.38
2022-08-14T23:52:50.734Z,2.90
2022-08-14T23:55:29.580Z,2.88
2022-08-14T23:58:02.604Z,2.67
